Terminal Aerodrome Forecast
Issued by NWS Wilmington, NC

Home | Current Version | Previous Version | Text Only | Print | Product List | Glossary On
Versions: 1 2 3 4 5 6 7 8 9 10 11 12 13 14 15
000
FTUS42 KILM 080529
TAFMYR
TAF
KMYR 080529Z 0806/0906 00000KT 6SM BR BKN020
     FM081300 00000KT P6SM SCT010
     FM081500 27005KT P6SM SCT020
     FM090000 35008KT P6SM SCT020
      AMD LTD TO CLD VIS AND WIND TIL 081100=

USA.gov is the U.S. government's official web portal to all federal, state and local government web resources and services.